createdAt,value
2022-11-20T00:01:30.418Z,0.84
2022-11-20T00:04:02.039Z,0.85
2022-11-20T00:06:30.369Z,0.85
2022-11-20T00:08:59.477Z,0.89
2022-11-20T00:11:28.896Z,0.91
2022-11-20T00:13:59.079Z,0.93
2022-11-20T00:16:28.583Z,0.96
2022-11-20T00:18:56.152Z,0.95
2022-11-20T00:21:26.542Z,0.92
2022-11-20T00:23:55.779Z,0.94
2022-11-20T00:26:25.997Z,0.96
2022-11-20T00:28:59.476Z,0.93
2022-11-20T00:31:27.196Z,0.90
2022-11-20T00:33:54.918Z,0.91
2022-11-20T00:36:24.511Z,0.90
2022-11-20T00:38:55.780Z,0.91
2022-11-20T00:41:23.680Z,0.91
2022-11-20T00:43:52.626Z,0.97
2022-11-20T00:46:22.262Z,0.99
2022-11-20T00:48:49.609Z,1.01
2022-11-20T00:51:20.609Z,1.04
2022-11-20T00:53:48.015Z,1.07
2022-11-20T00:56:17.238Z,1.08
2022-11-20T00:58:46.506Z,1.05
2022-11-20T01:01:25.371Z,1.07
2022-11-20T01:03:55.082Z,1.07
2022-11-20T01:06:34.174Z,1.06
2022-11-20T01:09:06.161Z,1.09
2022-11-20T01:11:36.655Z,1.10
2022-11-20T01:14:06.826Z,1.15
2022-11-20T01:16:37.279Z,1.18
2022-11-20T01:19:07.427Z,1.23
2022-11-20T01:21:38.127Z,1.24
2022-11-20T01:24:09.119Z,1.29
2022-11-20T01:26:39.105Z,1.33
2022-11-20T01:29:07.013Z,1.39
2022-11-20T01:31:36.725Z,1.44
2022-11-20T01:34:06.413Z,1.48
2022-11-20T01:36:36.827Z,1.47
2022-11-20T01:39:07.130Z,1.47
2022-11-20T01:41:54.403Z,1.47
2022-11-20T01:44:43.734Z,1.46
2022-11-20T01:47:15.683Z,1.52
2022-11-20T01:49:50.067Z,1.54
2022-11-20T01:52:52.141Z,1.56
2022-11-20T01:55:23.496Z,1.58
2022-11-20T01:57:51.416Z,1.62
2022-11-20T02:00:20.674Z,1.66
2022-11-20T02:03:02.247Z,1.72
2022-11-20T02:05:40.283Z,1.74
2022-11-20T02:08:08.316Z,1.81
2022-11-20T02:10:35.447Z,1.86
2022-11-20T02:13:21.357Z,1.97
2022-11-20T02:15:49.125Z,1.96
2022-11-20T02:18:18.977Z,1.95
2022-11-20T02:20:49.575Z,1.99
2022-11-20T02:23:31.255Z,2.02
2022-11-20T02:25:59.628Z,2.00
2022-11-20T02:28:27.579Z,2.01
2022-11-20T02:30:54.729Z,2.04
2022-11-20T02:33:21.755Z,2.07
2022-11-20T02:35:51.586Z,2.10
2022-11-20T02:38:19.295Z,2.12
2022-11-20T02:40:49.318Z,2.16
2022-11-20T02:43:18.552Z,2.22
2022-11-20T02:45:45.633Z,2.26
2022-11-20T02:48:15.740Z,2.32
2022-11-20T02:50:42.915Z,2.34
2022-11-20T02:53:10.064Z,2.37
2022-11-20T02:55:37.870Z,2.39
2022-11-20T02:58:04.946Z,2.42
2022-11-20T03:00:33.129Z,2.45
2022-11-20T03:03:00.366Z,2.47
2022-11-20T03:05:27.462Z,2.49
2022-11-20T03:07:54.578Z,2.53
2022-11-20T03:10:21.682Z,2.54
2022-11-20T03:12:48.841Z,2.57
2022-11-20T03:15:15.995Z,2.61
2022-11-20T03:17:43.235Z,2.62
2022-11-20T03:20:11.215Z,2.63
2022-11-20T03:22:38.353Z,2.64
2022-11-20T03:25:05.828Z,2.66
2022-11-20T03:27:34.937Z,2.67
2022-11-20T03:30:02.516Z,2.67
2022-11-20T03:32:29.855Z,2.69
2022-11-20T03:34:56.911Z,2.70
2022-11-20T03:37:25.167Z,2.72
2022-11-20T03:39:52.187Z,2.74
2022-11-20T03:42:37.977Z,2.75
2022-11-20T03:45:05.787Z,2.81
2022-11-20T03:47:32.890Z,2.80
2022-11-20T03:50:00.646Z,2.92
2022-11-20T03:52:28.639Z,2.89
2022-11-20T03:54:55.754Z,2.89
2022-11-20T03:57:23.487Z,2.94
2022-11-20T03:59:50.542Z,2.95
2022-11-20T04:02:17.644Z,3.00
2022-11-20T04:04:44.868Z,2.98
2022-11-20T04:07:12.101Z,2.99
2022-11-20T04:09:39.255Z,2.99
2022-11-20T04:12:06.478Z,3.02
2022-11-20T04:14:33.657Z,3.03
2022-11-20T04:17:00.706Z,3.09
2022-11-20T04:19:27.954Z,3.17
2022-11-20T04:21:55.956Z,3.18
2022-11-20T04:24:23.088Z,3.18
2022-11-20T04:26:50.113Z,3.22
2022-11-20T04:29:17.186Z,3.23
2022-11-20T04:31:44.422Z,3.23
2022-11-20T04:34:12.950Z,3.25
2022-11-20T04:36:41.056Z,3.26
2022-11-20T04:39:08.163Z,3.27
2022-11-20T04:41:37.183Z,3.29
2022-11-20T04:44:06.636Z,3.30
2022-11-20T04:46:39.602Z,3.31
2022-11-20T04:49:07.801Z,3.32
2022-11-20T04:51:36.623Z,3.34
2022-11-20T04:54:04.087Z,3.34
2022-11-20T04:56:31.099Z,3.34
2022-11-20T04:59:02.676Z,3.38
2022-11-20T05:01:30.094Z,3.39
2022-11-20T05:03:58.334Z,3.40
2022-11-20T05:06:25.624Z,3.41
2022-11-20T05:08:52.863Z,3.45
2022-11-20T05:11:21.835Z,3.47
2022-11-20T05:13:49.878Z,3.48
2022-11-20T05:16:22.819Z,3.49
2022-11-20T05:18:51.458Z,3.49
2022-11-20T05:21:19.641Z,3.51
2022-11-20T05:23:47.602Z,3.52
2022-11-20T05:26:22.775Z,3.54
2022-11-20T05:28:53.385Z,3.56
2022-11-20T05:31:27.261Z,3.61
2022-11-20T05:33:58.395Z,3.63
2022-11-20T05:36:26.888Z,3.65
2022-11-20T05:38:59.766Z,3.67
2022-11-20T05:41:28.968Z,3.69
2022-11-20T05:43:57.493Z,3.72
2022-11-20T05:46:28.226Z,3.74
2022-11-20T05:48:58.260Z,3.75
2022-11-20T05:51:26.971Z,3.75
2022-11-20T05:53:54.116Z,3.78
2022-11-20T05:56:22.467Z,3.79
2022-11-20T05:58:50.327Z,3.80
2022-11-20T06:01:21.292Z,3.83
2022-11-20T06:03:52.040Z,3.83
2022-11-20T06:06:20.656Z,3.87
2022-11-20T06:08:48.943Z,3.87
2022-11-20T06:11:17.209Z,3.88
2022-11-20T06:13:45.205Z,3.90
2022-11-20T06:16:15.427Z,3.91
2022-11-20T06:18:46.536Z,3.94
2022-11-20T06:21:16.497Z,3.96
2022-11-20T06:23:43.873Z,3.97
2022-11-20T06:26:20.764Z,3.98
2022-11-20T06:28:48.300Z,3.99
2022-11-20T06:31:17.950Z,4.00
2022-11-20T06:33:45.665Z,4.02
2022-11-20T06:36:15.073Z,4.03
2022-11-20T06:38:42.473Z,4.05
2022-11-20T06:41:15.212Z,4.06
2022-11-20T06:43:43.046Z,4.07
2022-11-20T06:46:12.132Z,4.08
2022-11-20T06:48:39.786Z,4.09
2022-11-20T06:51:08.585Z,4.09
2022-11-20T06:53:36.866Z,4.10
2022-11-20T06:56:04.751Z,4.12
2022-11-20T06:58:34.157Z,4.13
2022-11-20T07:01:03.150Z,4.12
2022-11-20T07:03:30.294Z,4.14
2022-11-20T07:05:58.522Z,4.15
2022-11-20T07:08:27.106Z,4.16
2022-11-20T07:10:57.895Z,4.18
2022-11-20T07:13:25.042Z,4.20
2022-11-20T07:15:52.185Z,4.21
2022-11-20T07:18:19.205Z,4.20
2022-11-20T07:20:46.394Z,4.23
2022-11-20T07:23:13.436Z,4.24
2022-11-20T07:25:40.580Z,4.23
2022-11-20T07:28:07.617Z,4.24
2022-11-20T07:30:34.845Z,4.27
2022-11-20T07:33:01.884Z,4.26
2022-11-20T07:35:29.137Z,4.28
2022-11-20T07:37:56.156Z,4.29
2022-11-20T07:40:23.411Z,4.30
2022-11-20T07:42:53.989Z,4.33
2022-11-20T07:45:24.674Z,4.32
2022-11-20T07:47:52.534Z,4.34
2022-11-20T07:50:20.873Z,4.37
2022-11-20T07:52:48.261Z,4.38
2022-11-20T07:55:16.383Z,4.39
2022-11-20T07:57:43.838Z,4.41
2022-11-20T08:00:12.568Z,4.42
2022-11-20T08:02:42.736Z,4.43
2022-11-20T08:05:11.804Z,4.45
2022-11-20T08:07:43.518Z,4.45
2022-11-20T08:10:14.063Z,4.48
2022-11-20T08:13:12.875Z,4.49
2022-11-20T08:15:41.812Z,4.50
2022-11-20T08:21:05.690Z,4.54
2022-11-20T08:23:33.118Z,4.56
2022-11-20T08:26:02.332Z,4.57
2022-11-20T08:28:30.205Z,4.57
2022-11-20T08:31:02.005Z,4.58
2022-11-20T08:33:29.870Z,4.61
2022-11-20T08:36:06.740Z,4.61
2022-11-20T08:38:34.273Z,4.63
2022-11-20T08:41:22.599Z,4.62
2022-11-20T08:43:50.057Z,4.66
2022-11-20T08:46:17.722Z,4.66
2022-11-20T08:48:46.368Z,4.66
2022-11-20T08:51:15.188Z,4.68
2022-11-20T08:53:45.459Z,4.71
2022-11-20T08:56:13.068Z,4.71
2022-11-20T08:59:09.830Z,4.73
2022-11-20T09:01:29.451Z,4.75
2022-11-20T09:04:01.052Z,4.75
2022-11-20T09:06:28.418Z,4.76
2022-11-20T09:09:02.073Z,4.79
2022-11-20T09:11:32.926Z,4.77
2022-11-20T09:14:01.278Z,4.79
2022-11-20T09:16:28.491Z,4.81
2022-11-20T09:19:13.498Z,4.82
2022-11-20T09:21:43.284Z,4.81
2022-11-20T09:24:10.685Z,4.84
2022-11-20T09:26:37.926Z,4.84
2022-11-20T09:29:05.637Z,4.83
2022-11-20T09:31:35.467Z,4.84
2022-11-20T09:34:02.697Z,4.83
2022-11-20T09:36:29.952Z,4.81
2022-11-20T09:38:58.094Z,4.81
2022-11-20T09:41:57.513Z,4.81
2022-11-20T09:45:01.319Z,4.82
2022-11-20T09:47:47.584Z,4.82
2022-11-20T09:50:17.308Z,4.84
2022-11-20T09:53:09.099Z,4.84
2022-11-20T09:55:38.572Z,4.87
2022-11-20T09:58:18.476Z,4.86
2022-11-20T10:00:46.016Z,4.87
2022-11-20T10:03:28.012Z,4.88
2022-11-20T10:05:56.801Z,4.89
2022-11-20T10:08:38.071Z,4.92
2022-11-20T10:11:17.203Z,4.93
2022-11-20T10:14:19.979Z,4.96
2022-11-20T10:17:23.079Z,4.98
2022-11-20T10:20:07.986Z,5.02
2022-11-20T10:23:08.448Z,5.01
2022-11-20T10:25:41.907Z,5.03
2022-11-20T10:28:20.914Z,5.03
2022-11-20T10:30:59.455Z,5.04
2022-11-20T10:33:50.173Z,5.06
2022-11-20T10:36:29.454Z,5.09
2022-11-20T10:39:08.209Z,5.13
2022-11-20T10:41:43.434Z,5.10
2022-11-20T10:44:40.417Z,5.12
2022-11-20T10:47:18.774Z,5.13
2022-11-20T10:49:59.046Z,5.10
2022-11-20T10:52:50.283Z,5.12
2022-11-20T10:55:35.848Z,5.10
2022-11-20T10:58:35.574Z,5.11
2022-11-20T11:01:24.624Z,5.11
2022-11-20T11:03:56.674Z,5.10
2022-11-20T11:06:34.882Z,5.10
2022-11-20T11:09:10.363Z,5.08
2022-11-20T11:11:39.704Z,5.05
2022-11-20T11:14:14.541Z,5.04
2022-11-20T11:16:58.836Z,5.04
2022-11-20T11:19:26.364Z,5.07
2022-11-20T11:21:57.827Z,5.04
2022-11-20T11:24:42.353Z,5.06
2022-11-20T11:27:19.282Z,5.08
2022-11-20T11:29:47.729Z,5.10
2022-11-20T11:32:22.934Z,5.24
2022-11-20T11:35:08.698Z,5.44
2022-11-20T11:37:38.629Z,5.52
2022-11-20T11:40:24.576Z,5.58
2022-11-20T11:42:57.838Z,5.65
2022-11-20T11:45:25.072Z,5.77
2022-11-20T11:47:53.570Z,5.69
2022-11-20T11:50:24.287Z,5.61
2022-11-20T11:53:11.331Z,5.61
2022-11-20T11:56:12.505Z,5.56
2022-11-20T11:58:47.882Z,5.61
2022-11-20T12:01:39.044Z,5.65
2022-11-20T12:04:43.394Z,5.67
2022-11-20T12:08:09.494Z,5.72
2022-11-20T12:10:42.820Z,5.63
2022-11-20T12:13:27.503Z,5.54
2022-11-20T12:15:54.787Z,5.49
2022-11-20T12:18:23.887Z,5.49
2022-11-20T12:21:21.419Z,5.50
2022-11-20T12:24:00.516Z,5.48
2022-11-20T12:26:49.646Z,5.55
2022-11-20T12:29:25.587Z,5.53
2022-11-20T12:32:20.733Z,5.55
2022-11-20T12:34:59.632Z,5.56
2022-11-20T12:37:29.241Z,5.59
2022-11-20T12:40:37.385Z,5.60
2022-11-20T12:43:38.956Z,5.66
2022-11-20T12:46:33.834Z,5.64
2022-11-20T12:49:34.697Z,5.65
2022-11-20T12:52:24.665Z,5.68
2022-11-20T12:55:08.876Z,5.67
2022-11-20T12:58:03.714Z,5.70
2022-11-20T13:00:33.015Z,5.69
2022-11-20T13:03:50.191Z,5.72
2022-11-20T13:06:19.702Z,5.74
2022-11-20T13:08:54.944Z,5.76
2022-11-20T13:11:59.658Z,5.77
2022-11-20T13:14:38.988Z,5.80
2022-11-20T13:17:23.168Z,5.88
2022-11-20T13:19:59.948Z,5.90
2022-11-20T13:22:53.051Z,5.85
2022-11-20T13:25:31.595Z,5.84
2022-11-20T13:28:01.448Z,5.91
2022-11-20T13:30:30.666Z,5.81
2022-11-20T13:33:08.066Z,5.72
2022-11-20T13:35:43.295Z,5.73
2022-11-20T13:38:15.924Z,5.74
2022-11-20T13:40:56.734Z,5.69
2022-11-20T13:43:38.225Z,5.67
2022-11-20T13:46:08.282Z,5.64
2022-11-20T13:48:41.534Z,5.67
2022-11-20T13:51:36.281Z,5.60
2022-11-20T13:54:06.157Z,5.64
2022-11-20T13:56:52.210Z,5.58
2022-11-20T13:59:36.094Z,5.54
2022-11-20T14:02:04.447Z,5.52
2022-11-20T14:04:36.369Z,5.42
2022-11-20T14:07:07.964Z,5.43
2022-11-20T14:09:35.434Z,5.42
2022-11-20T14:12:04.949Z,5.45
2022-11-20T14:14:34.752Z,5.34
2022-11-20T14:17:22.136Z,5.35
2022-11-20T14:19:51.747Z,5.29
2022-11-20T14:22:24.991Z,5.29
2022-11-20T14:25:07.137Z,5.22
2022-11-20T14:27:38.914Z,5.22
2022-11-20T14:30:07.951Z,5.21
2022-11-20T14:32:36.800Z,5.19
2022-11-20T14:35:11.166Z,5.15
2022-11-20T14:38:34.288Z,5.10
2022-11-20T14:41:26.618Z,5.05
2022-11-20T14:44:01.030Z,5.02
2022-11-20T14:46:29.349Z,4.97
2022-11-20T14:49:02.104Z,4.94
2022-11-20T14:51:44.212Z,4.91
2022-11-20T14:54:12.692Z,4.90
2022-11-20T14:56:41.014Z,4.88
2022-11-20T14:59:11.477Z,4.87
2022-11-20T15:01:39.168Z,4.84
2022-11-20T15:04:09.116Z,4.82
2022-11-20T15:06:37.558Z,4.79
2022-11-20T15:09:15.769Z,4.77
2022-11-20T15:11:55.975Z,4.76
2022-11-20T15:14:25.366Z,4.74
2022-11-20T15:16:53.846Z,4.73
2022-11-20T15:19:25.726Z,4.72
2022-11-20T15:21:52.955Z,4.71
2022-11-20T15:24:20.430Z,4.70
2022-11-20T15:26:47.704Z,4.70
2022-11-20T15:29:23.005Z,4.66
2022-11-20T15:31:52.191Z,4.63
2022-11-20T15:34:19.581Z,4.60
2022-11-20T15:36:46.737Z,4.59
2022-11-20T15:39:13.890Z,4.58
2022-11-20T15:41:41.307Z,4.56
2022-11-20T15:44:08.745Z,4.55
2022-11-20T15:46:41.386Z,4.54
2022-11-20T15:49:15.948Z,4.55
2022-11-20T15:51:47.541Z,4.52
2022-11-20T15:54:19.466Z,4.51
2022-11-20T15:56:48.340Z,4.50
2022-11-20T15:59:19.035Z,4.49
2022-11-20T16:01:46.509Z,4.48
2022-11-20T16:04:16.462Z,4.48
2022-11-20T16:06:44.095Z,4.45
2022-11-20T16:09:11.950Z,4.43
2022-11-20T16:11:39.707Z,4.41
2022-11-20T16:14:26.855Z,4.39
2022-11-20T16:16:54.298Z,4.39
2022-11-20T16:19:21.967Z,4.36
2022-11-20T16:21:49.428Z,4.37
2022-11-20T16:24:17.602Z,4.36
2022-11-20T16:26:44.939Z,4.32
2022-11-20T16:29:12.708Z,4.31
2022-11-20T16:31:40.725Z,4.29
2022-11-20T16:34:23.423Z,4.28
2022-11-20T16:36:50.786Z,4.24
2022-11-20T16:39:23.322Z,4.25
2022-11-20T16:41:51.315Z,4.23
2022-11-20T16:44:18.964Z,4.22
2022-11-20T16:46:46.361Z,4.20
2022-11-20T16:49:17.882Z,4.16
2022-11-20T16:51:45.510Z,4.18
2022-11-20T16:54:16.362Z,4.14
2022-11-20T16:56:48.723Z,4.12
2022-11-20T16:59:16.903Z,4.10
2022-11-20T17:01:44.377Z,4.09
2022-11-20T17:04:11.683Z,4.07
2022-11-20T17:06:44.406Z,4.08
2022-11-20T17:09:13.044Z,4.02
2022-11-20T17:11:40.254Z,4.01
2022-11-20T17:14:07.793Z,3.99
2022-11-20T17:16:37.012Z,3.99
2022-11-20T17:19:05.602Z,3.95
2022-11-20T17:21:36.364Z,3.94
2022-11-20T17:24:05.629Z,3.91
2022-11-20T17:26:33.549Z,3.86
2022-11-20T17:29:24.383Z,3.82
2022-11-20T17:31:51.934Z,3.81
2022-11-20T17:34:19.039Z,3.80
2022-11-20T17:36:46.783Z,3.77
2022-11-20T17:39:15.646Z,3.73
2022-11-20T17:41:42.870Z,3.74
2022-11-20T17:44:11.911Z,3.68
2022-11-20T17:46:39.262Z,3.66
2022-11-20T17:49:06.606Z,3.64
2022-11-20T17:51:35.460Z,3.63
2022-11-20T17:54:05.013Z,3.60
2022-11-20T17:56:52.719Z,3.58
2022-11-20T17:59:20.223Z,3.54
2022-11-20T18:01:47.654Z,3.46
2022-11-20T18:04:15.114Z,3.37
2022-11-20T18:06:43.291Z,3.34
2022-11-20T18:09:10.944Z,3.32
2022-11-20T18:11:42.625Z,3.32
2022-11-20T18:14:32.873Z,3.31
2022-11-20T18:17:05.074Z,3.27
2022-11-20T18:19:40.275Z,3.24
2022-11-20T18:22:13.185Z,3.23
2022-11-20T18:24:40.964Z,3.19
2022-11-20T18:27:15.614Z,3.20
2022-11-20T18:29:42.893Z,3.14
2022-11-20T18:32:09.943Z,3.17
2022-11-20T18:34:37.134Z,3.13
2022-11-20T18:37:04.328Z,3.11
2022-11-20T18:39:31.528Z,3.12
2022-11-20T18:42:17.441Z,3.13
2022-11-20T18:44:56.767Z,3.14
2022-11-20T18:47:28.001Z,3.13
2022-11-20T18:49:57.599Z,3.12
2022-11-20T18:52:36.153Z,3.15
2022-11-20T18:55:05.422Z,3.17
2022-11-20T18:57:33.479Z,3.17
2022-11-20T19:00:06.395Z,3.17
2022-11-20T19:02:41.008Z,3.19
2022-11-20T19:05:11.830Z,3.19
2022-11-20T19:07:39.230Z,3.20
2022-11-20T19:10:07.220Z,3.21
2022-11-20T19:12:35.366Z,3.23
2022-11-20T19:15:02.663Z,3.25
2022-11-20T19:17:30.000Z,3.25
2022-11-20T19:19:57.292Z,3.27
2022-11-20T19:22:27.880Z,3.25
2022-11-20T19:24:56.192Z,3.27
2022-11-20T19:27:24.540Z,3.27
2022-11-20T19:29:59.005Z,3.27
2022-11-20T19:32:26.361Z,3.27
2022-11-20T19:34:53.658Z,3.28
2022-11-20T19:37:20.922Z,3.29
2022-11-20T19:39:48.623Z,3.27
2022-11-20T19:42:16.441Z,3.31
2022-11-20T19:44:43.600Z,3.33
2022-11-20T19:47:14.449Z,3.33
2022-11-20T19:49:42.450Z,3.36
2022-11-20T19:52:10.061Z,3.38
2022-11-20T19:54:37.319Z,3.39
2022-11-20T19:57:04.519Z,3.41
2022-11-20T19:59:32.929Z,3.42
2022-11-20T20:02:02.273Z,3.45
2022-11-20T20:04:29.688Z,3.46
2022-11-20T20:06:56.932Z,3.45
2022-11-20T20:09:26.785Z,3.48
2022-11-20T20:11:57.351Z,3.48
2022-11-20T20:14:25.055Z,3.48
2022-11-20T20:16:52.711Z,3.49
2022-11-20T20:19:19.956Z,3.50
2022-11-20T20:21:48.383Z,3.51
2022-11-20T20:24:15.843Z,3.50
2022-11-20T20:26:43.484Z,3.49
2022-11-20T20:29:11.147Z,3.51
2022-11-20T20:31:38.441Z,3.50
2022-11-20T20:34:06.249Z,3.52
2022-11-20T20:36:33.817Z,3.51
2022-11-20T20:39:03.719Z,3.51
2022-11-20T20:41:31.342Z,3.51
2022-11-20T20:44:17.611Z,3.52
2022-11-20T20:46:44.837Z,3.51
2022-11-20T20:49:13.273Z,3.50
2022-11-20T20:51:40.460Z,3.46
2022-11-20T20:54:07.831Z,3.44
2022-11-20T20:56:35.228Z,3.41
2022-11-20T20:59:04.375Z,3.37
2022-11-20T21:01:31.715Z,3.33
2022-11-20T21:04:00.199Z,3.31
2022-11-20T21:06:27.554Z,3.28
2022-11-20T21:08:57.512Z,3.26
2022-11-20T21:11:25.098Z,3.29
2022-11-20T21:13:52.626Z,3.30
2022-11-20T21:16:22.589Z,3.31
2022-11-20T21:18:50.083Z,3.34
2022-11-20T21:21:36.685Z,3.36
2022-11-20T21:24:04.369Z,3.39
2022-11-20T21:26:31.884Z,3.41
2022-11-20T21:29:00.223Z,3.43
2022-11-20T21:31:28.716Z,3.46
2022-11-20T21:33:57.082Z,3.48
2022-11-20T21:36:26.949Z,3.50
2022-11-20T21:38:58.955Z,3.52
2022-11-20T21:41:30.549Z,3.55
2022-11-20T21:44:41.020Z,3.59
2022-11-20T21:46:46.838Z,3.61
2022-11-20T21:49:15.482Z,3.63
2022-11-20T21:51:43.885Z,3.66
2022-11-20T21:54:12.006Z,3.67
2022-11-20T21:56:39.931Z,3.68
2022-11-20T21:59:07.189Z,3.69
2022-11-20T22:01:35.179Z,3.73
2022-11-20T22:04:03.312Z,3.72
2022-11-20T22:06:33.849Z,3.73
2022-11-20T22:09:02.385Z,3.73
2022-11-20T22:11:30.032Z,3.74
2022-11-20T22:14:16.156Z,3.76
2022-11-20T22:16:43.551Z,3.79
2022-11-20T22:19:10.811Z,3.78
2022-11-20T22:21:40.985Z,3.79
2022-11-20T22:24:12.330Z,3.81
2022-11-20T22:26:40.657Z,3.81
2022-11-20T22:29:12.388Z,3.81
2022-11-20T22:31:39.478Z,3.83
2022-11-20T22:34:06.698Z,3.84
2022-11-20T22:36:37.260Z,3.83
2022-11-20T22:39:05.522Z,3.84
2022-11-20T22:41:33.241Z,3.86
2022-11-20T22:44:06.020Z,3.85
2022-11-20T22:46:35.878Z,3.87
2022-11-20T22:49:11.543Z,3.86
2022-11-20T22:51:40.776Z,3.87
2022-11-20T22:54:13.632Z,3.90
2022-11-20T22:56:41.433Z,3.89
2022-11-20T22:59:08.931Z,3.88
2022-11-20T23:01:37.208Z,3.89
2022-11-20T23:04:09.933Z,3.86
2022-11-20T23:06:37.194Z,3.86
2022-11-20T23:09:08.151Z,3.86
2022-11-20T23:11:36.573Z,3.87
2022-11-20T23:14:07.371Z,3.88
2022-11-20T23:16:35.165Z,3.87
2022-11-20T23:19:06.213Z,3.87
2022-11-20T23:21:34.828Z,3.88
2022-11-20T23:24:03.152Z,3.90
2022-11-20T23:26:40.499Z,3.89
2022-11-20T23:29:08.355Z,3.90
2022-11-20T23:31:35.913Z,3.89
2022-11-20T23:34:03.902Z,3.89
2022-11-20T23:36:31.506Z,3.90
2022-11-20T23:38:58.628Z,3.88
2022-11-20T23:41:25.739Z,3.92
2022-11-20T23:43:54.317Z,3.91
2022-11-20T23:46:21.460Z,3.87
2022-11-20T23:48:48.597Z,3.87
2022-11-20T23:51:15.724Z,3.86
2022-11-20T23:53:42.893Z,3.87
2022-11-20T23:56:11.974Z,3.86
2022-11-20T23:58:40.342Z,3.85
